Time;durP1;ratioP1;P1;durP2;ratioP2;P2;SDS_P1;SDS_P2;PMS_P1;PMS_P2;Temp;Humidity;BMP_temperature;BMP_pressure;BME280_temperature;BME280_humidity;BME280_pressure;Samples;Min_cycle;Max_cycle;Signal;HPM_P1;HPM_P2
2022/12/21 00:01:48;;;;;;;25.83;15.53;;;;;;;41.12;37.16;100946.25;4999456;28;20405;-72
2022/12/21 00:04:15;;;;;;;23.50;16.77;;;;;;;41.21;37.44;100943.50;4999895;28;20444;-72
2022/12/21 00:06:41;;;;;;;14.17;13.23;;;;;;;40.94;37.58;100936.53;4981819;28;20797;-71
2022/12/21 00:09:10;;;;;;;20.00;14.40;;;;;;;40.65;38.25;100943.50;4980631;28;20921;-73
2022/12/21 00:11:36;;;;;;;24.20;15.17;;;;;;;40.80;38.45;100931.28;4979013;28;20516;-72
2022/12/21 00:14:04;;;;;;;20.90;14.57;;;;;;;40.85;37.83;100939.28;4997632;28;20492;-74
2022/12/21 00:16:32;;;;;;;25.57;13.60;;;;;;;40.54;38.35;100942.22;4997702;28;20397;-74
2022/12/21 00:19:00;;;;;;;18.27;14.10;;;;;;;40.71;38.38;100939.47;4979751;28;20480;-74
2022/12/21 00:21:30;;;;;;;25.23;14.70;;;;;;;40.92;37.96;100945.03;4997626;28;20970;-74
2022/12/21 00:24:00;;;;;;;18.43;13.57;;;;;;;40.78;37.74;100947.13;4980156;28;20452;-73
2022/12/21 00:26:33;;;;;;;21.57;12.90;;;;;;;40.74;38.04;100949.69;4998596;28;20402;-74
2022/12/21 00:28:59;;;;;;;21.97;13.87;;;;;;;41.04;37.31;100944.34;4979584;28;20441;-72
2022/12/21 00:31:28;;;;;;;27.13;15.33;;;;;;;41.07;37.54;100939.06;4987937;28;20416;-74
2022/12/21 00:33:55;;;;;;;23.70;13.40;;;;;;;40.85;37.50;100936.56;4997054;28;20487;-74
2022/12/21 00:36:22;;;;;;;27.17;15.47;;;;;;;40.95;37.42;100936.25;4996801;28;20560;-75
2022/12/21 00:38:48;;;;;;;21.93;14.83;;;;;;;41.24;36.99;100943.63;4997184;28;20436;-74
2022/12/21 00:41:16;;;;;;;20.87;14.10;;;;;;;40.86;38.02;100938.13;4996531;28;20907;-71
2022/12/21 00:43:44;;;;;;;21.30;14.73;;;;;;;40.73;38.38;100931.78;4996055;28;20459;-71
2022/12/21 00:46:22;;;;;;;22.40;15.17;;;;;;;41.07;37.42;100938.28;4977459;28;20467;-71
2022/12/21 00:48:48;;;;;;;20.27;13.90;;;;;;;41.16;37.03;100930.88;4978249;28;20413;-72
2022/12/21 00:51:18;;;;;;;26.37;13.37;;;;;;;40.92;37.64;100930.63;4978658;28;20452;-71
2022/12/21 00:53:44;;;;;;;22.27;13.27;;;;;;;40.83;37.85;100929.84;4978103;28;20422;-71
2022/12/21 00:56:10;;;;;;;23.07;13.80;;;;;;;40.94;37.52;100926.44;4978808;28;20425;-71
2022/12/21 00:58:37;;;;;;;16.93;14.10;;;;;;;41.10;37.51;100925.94;4996089;28;20406;-71
2022/12/21 01:01:24;;;;;;;19.13;14.17;;;;;;;41.07;37.58;100921.94;4976929;28;20465;-71
2022/12/21 01:03:51;;;;;;;17.63;14.17;;;;;;;41.10;37.25;100921.28;4978011;28;20917;-71
2022/12/21 01:06:23;;;;;;;19.27;14.17;;;;;;;41.22;36.88;100918.66;4978139;28;20417;-71
2022/12/21 01:08:49;;;;;;;19.57;15.47;;;;;;;41.23;36.76;100916.75;4977995;28;20418;-72
2022/12/21 01:11:17;;;;;;;19.20;13.57;;;;;;;41.05;37.16;100910.56;4995983;28;20429;-71
2022/12/21 01:13:43;;;;;;;25.83;14.93;;;;;;;41.07;36.26;100925.47;4977857;28;20509;-71
2022/12/21 01:16:19;;;;;;;32.70;15.27;;;;;;;41.08;36.49;100929.78;4977773;28;20428;-72
2022/12/21 01:18:46;;;;;;;20.17;14.03;;;;;;;41.10;36.37;100932.16;4976970;28;20427;-72
2022/12/21 01:21:18;;;;;;;19.83;14.20;;;;;;;41.09;37.07;100925.13;4977587;28;20487;-72
2022/12/21 01:23:44;;;;;;;20.10;13.30;;;;;;;41.02;36.84;100919.41;4977732;28;20452;-74
2022/12/21 01:26:11;;;;;;;23.00;14.83;;;;;;;40.86;37.41;100918.31;4977688;28;20425;-73
2022/12/21 01:28:37;;;;;;;26.80;13.77;;;;;;;41.03;36.96;100910.13;4977642;28;20456;-71
2022/12/21 01:31:04;;;;;;;20.30;14.80;;;;;;;40.55;37.83;100909.28;4983539;28;20532;-71
2022/12/21 01:33:30;;;;;;;17.33;15.20;;;;;;;40.37;38.00;100898.72;4993712;28;20433;-71
2022/12/21 01:35:56;;;;;;;20.73;13.07;;;;;;;40.87;37.10;100903.56;4966859;28;20479;-72
2022/12/21 01:38:22;;;;;;;18.53;14.00;;;;;;;40.72;37.14;100897.56;4955661;29;20434;-71
2022/12/21 01:40:48;;;;;;;23.03;17.10;;;;;;;40.67;37.19;100908.59;4954779;28;20463;-71
2022/12/21 01:43:38;;;;;;;27.33;15.63;;;;;;;40.55;37.24;100906.56;4954606;29;20439;-73
2022/12/21 01:46:09;;;;;;;20.40;14.97;;;;;;;41.11;36.47;100903.03;4955026;29;20853;-74
2022/12/21 01:48:43;;;;;;;20.03;13.77;;;;;;;41.09;36.99;100900.66;4954629;29;20423;-71
2022/12/21 01:51:10;;;;;;;22.50;15.77;;;;;;;40.79;37.14;100895.13;4954015;28;20443;-72
2022/12/21 01:53:41;;;;;;;22.43;12.83;;;;;;;40.38;37.16;100892.16;4954748;29;20819;-73
2022/12/21 01:56:10;;;;;;;23.93;14.43;;;;;;;40.77;37.34;100893.88;4953503;28;20426;-71
2022/12/21 01:58:36;;;;;;;24.50;14.83;;;;;;;40.86;36.87;100894.63;4954691;29;20423;-73
2022/12/21 02:01:05;;;;;;;16.33;14.30;;;;;;;40.77;37.19;100886.50;4953203;29;20478;-71
2022/12/21 02:03:43;;;;;;;24.93;14.20;;;;;;;40.59;37.47;100879.53;4954473;29;20431;-71
2022/12/21 02:06:15;;;;;;;21.90;15.60;;;;;;;40.61;36.96;100880.00;4953327;28;20450;-71
2022/12/21 02:08:42;;;;;;;22.40;15.27;;;;;;;40.23;37.49;100877.16;4969689;28;20434;-70
2022/12/21 02:11:10;;;;;;;17.43;14.60;;;;;;;40.41;37.47;100880.66;4975033;28;20467;-72
2022/12/21 02:13:36;;;;;;;22.67;14.30;;;;;;;40.57;37.46;100879.03;4973637;28;20418;-72
2022/12/21 02:16:23;;;;;;;20.50;13.90;;;;;;;40.84;36.90;100880.56;4973776;28;20428;-71
2022/12/21 02:19:26;;;;;;;28.03;15.20;;;;;;;40.87;36.79;100881.81;4973555;28;20414;-73
2022/12/21 02:22:04;;;;;;;22.07;15.73;;;;;;;40.85;36.91;100881.34;4967811;28;20997;-72
2022/12/21 02:24:36;;;;;;;28.30;14.90;;;;;;;40.63;37.44;100874.22;4953806;29;20494;-73
2022/12/21 02:27:30;;;;;;;18.70;15.13;;;;;;;40.44;37.57;100875.34;4954134;29;20994;-74
2022/12/21 02:29:56;;;;;;;22.07;16.37;;;;;;;40.43;37.97;100876.47;4953627;29;20531;-74
2022/12/21 02:32:38;;;;;;;17.07;14.80;;;;;;;40.78;37.34;100879.94;4951930;28;20898;-74
2022/12/21 02:35:34;;;;;;;25.23;19.80;;;;;;;40.39;37.78;100881.00;4953598;28;20187;-74
2022/12/21 02:38:32;;;;;;;27.30;23.80;;;;;;;40.36;38.05;100888.97;4990196;28;20456;-74
2022/12/21 02:41:17;;;;;;;38.50;24.80;;;;;;;40.42;38.14;100884.97;4974409;28;20544;-74
2022/12/21 02:44:13;;;;;;;37.20;28.30;;;;;;;40.17;38.35;100898.28;4975723;28;20418;-70
2022/12/21 02:46:49;;;;;;;38.37;26.60;;;;;;;40.01;38.63;100900.63;4993956;28;20400;-73
2022/12/21 02:49:26;;;;;;;39.23;27.10;;;;;;;40.07;38.62;100895.06;4976068;28;20428;-73
2022/12/21 02:52:04;;;;;;;38.33;27.93;;;;;;;40.15;38.30;100900.53;4975952;28;20410;-73
2022/12/21 02:54:30;;;;;;;46.17;30.03;;;;;;;40.06;38.79;100897.00;4967976;28;20465;-71
2022/12/21 02:56:56;;;;;;;48.80;29.27;;;;;;;40.20;38.33;100899.53;4956587;28;20797;-74
2022/12/21 02:59:28;;;;;;;43.23;30.80;;;;;;;40.02;38.64;100899.53;4956643;28;20457;-72
2022/12/21 03:02:31;;;;;;;42.07;29.70;;;;;;;39.61;39.17;100899.97;4974289;28;20431;-71
2022/12/21 03:05:30;;;;;;;38.13;25.70;;;;;;;39.86;38.60;100892.97;4956459;28;20994;-73
2022/12/21 03:08:08;;;;;;;31.03;21.93;;;;;;;39.49;39.36;100900.56;4954974;28;20420;-72
2022/12/21 03:10:59;;;;;;;35.17;25.67;;;;;;;39.49;39.49;100902.47;4984360;28;20429;-71
2022/12/21 03:13:52;;;;;;;29.13;22.10;;;;;;;39.34;39.84;100892.03;4975888;28;20410;-71
2022/12/21 03:16:39;;;;;;;28.63;22.60;;;;;;;39.50;39.61;100890.50;4974259;28;20968;-71
2022/12/21 03:19:19;;;;;;;32.10;25.00;;;;;;;39.53;39.77;100886.34;4975710;28;20417;-74
2022/12/21 03:21:53;;;;;;;35.50;23.33;;;;;;;39.59;39.46;100894.00;4975780;28;20475;-71
2022/12/21 03:24:37;;;;;;;52.23;24.57;;;;;;;39.31;40.21;100900.84;4993357;28;20880;-74
2022/12/21 03:27:36;;;;;;;33.60;24.00;;;;;;;39.46;40.25;100901.16;4974624;28;20476;-72
2022/12/21 03:30:12;;;;;;;42.60;26.97;;;;;;;39.63;39.84;100905.88;4973595;28;20422;-72
2022/12/21 03:32:56;;;;;;;45.63;24.77;;;;;;;39.68;39.75;100905.72;4991784;28;20445;-72
2022/12/21 03:35:37;;;;;;;40.33;25.97;;;;;;;39.70;40.04;100902.69;4991612;28;20515;-71
2022/12/21 03:38:07;;;;;;;39.83;25.33;;;;;;;39.76;39.50;100896.00;4991884;28;20516;-74
2022/12/21 03:40:37;;;;;;;36.43;26.17;;;;;;;39.77;39.74;100897.59;4993193;28;20780;-74
2022/12/21 03:43:09;;;;;;;33.77;25.57;;;;;;;39.49;40.05;100892.41;4990976;28;20449;-71
2022/12/21 03:45:40;;;;;;;34.77;25.07;;;;;;;39.76;39.68;100885.13;4993266;28;20445;-71
2022/12/21 03:48:14;;;;;;;38.67;24.73;;;;;;;39.93;39.14;100885.13;4959872;28;20500;-71
2022/12/21 03:50:45;;;;;;;38.60;24.20;;;;;;;39.72;39.42;100879.53;4975534;28;20509;-71
2022/12/21 03:53:42;;;;;;;33.23;25.27;;;;;;;39.94;39.14;100888.66;4959746;28;20531;-73
2022/12/21 03:56:13;;;;;;;30.87;23.27;;;;;;;39.23;39.99;100886.94;4975372;28;20911;-74
2022/12/21 03:58:39;;;;;;;32.53;23.43;;;;;;;39.88;39.23;100887.22;4975322;28;20421;-70
2022/12/21 04:01:10;;;;;;;38.27;23.47;;;;;;;40.02;38.81;100882.41;4974248;28;20457;-71
2022/12/21 04:03:41;;;;;;;38.00;26.13;;;;;;;39.86;38.92;100878.59;4975656;28;20418;-70
2022/12/21 04:06:17;;;;;;;30.53;22.20;;;;;;;39.90;38.94;100887.69;4976155;28;20409;-71
2022/12/21 04:08:43;;;;;;;38.43;24.60;;;;;;;40.16;38.61;100891.25;4959847;28;20417;-71
2022/12/21 04:12:36;;;;;;;32.37;23.00;;;;;;;39.72;39.05;100897.75;4975208;28;20471;-71
2022/12/21 04:13:58;;;;;;;34.53;23.53;;;;;;;39.97;38.74;100885.31;4992613;28;20493;-71
2022/12/21 04:16:24;;;;;;;31.60;23.50;;;;;;;40.13;38.25;100886.44;4975139;28;20504;-71
2022/12/21 04:21:34;;;;;;;40.63;27.37;;;;;;;39.41;40.27;100897.81;4996371;28;20820;-71
2022/12/21 04:29:29;;;;;;;35.80;29.40;;;;;;;38.91;40.55;100911.63;4996024;28;20409;-74
2022/12/21 04:31:55;;;;;;;35.70;26.77;;;;;;;39.10;40.22;100908.69;4991565;28;20418;-73
2022/12/21 04:34:21;;;;;;;43.43;28.07;;;;;;;39.55;39.31;100916.69;4994844;28;20428;-71
2022/12/21 04:39:31;;;;;;;42.70;28.33;;;;;;;39.96;38.57;100913.56;4957186;29;20478;-73
2022/12/21 04:41:57;;;;;;;55.30;29.40;;;;;;;39.55;38.97;100922.13;4957475;29;20402;-71
2022/12/21 04:44:23;;;;;;;44.80;29.83;;;;;;;39.73;38.81;100921.06;4957610;29;20403;-73
2022/12/21 04:46:49;;;;;;;49.50;30.37;;;;;;;39.55;39.26;100914.78;4955804;29;20451;-73
2022/12/21 04:49:15;;;;;;;45.50;31.70;;;;;;;39.78;38.51;100920.09;4956454;29;20431;-73
2022/12/21 04:51:41;;;;;;;41.70;27.67;;;;;;;39.75;38.47;100911.47;4955004;28;20442;-70
2022/12/21 04:54:07;;;;;;;70.43;42.50;;;;;;;39.38;39.52;100920.16;4955655;28;20510;-71
2022/12/21 04:56:33;;;;;;;48.10;34.90;;;;;;;39.71;38.53;100921.38;4956284;29;20415;-71
2022/12/21 04:58:59;;;;;;;61.50;43.50;;;;;;;39.89;38.28;100910.53;4955605;28;20801;-71
2022/12/21 05:01:25;;;;;;;42.03;33.10;;;;;;;39.81;38.45;100919.47;4955505;28;20506;-71
2022/12/21 05:03:53;;;;;;;50.10;33.07;;;;;;;39.84;38.48;100913.41;4956133;29;20463;-71
2022/12/21 05:06:20;;;;;;;44.47;31.10;;;;;;;39.93;38.08;100915.03;4955502;29;20466;-71
2022/12/21 05:08:46;;;;;;;53.47;31.87;;;;;;;39.65;38.67;100910.97;4956260;28;20403;-71
2022/12/21 05:11:21;;;;;;;47.40;30.30;;;;;;;39.82;38.71;100911.00;4955615;29;20498;-70
2022/12/21 05:13:48;;;;;;;44.30;29.40;;;;;;;39.75;38.85;100908.78;4957033;29;20395;-73
2022/12/21 05:16:17;;;;;;;49.20;30.13;;;;;;;39.93;38.08;100917.72;4954217;29;20439;-70
2022/12/21 05:18:43;;;;;;;46.20;30.03;;;;;;;39.70;38.08;100922.50;4955241;28;20463;-71
2022/12/21 05:21:10;;;;;;;43.33;31.83;;;;;;;39.37;38.87;100919.38;4955324;28;20479;-71
2022/12/21 05:23:37;;;;;;;51.13;34.03;;;;;;;39.81;38.61;100920.28;4955071;29;20775;-71
2022/12/21 05:26:04;;;;;;;48.80;36.30;;;;;;;39.56;38.41;100924.53;4955876;28;20505;-71
2022/12/21 05:28:30;;;;;;;58.13;37.07;;;;;;;39.80;38.05;100923.31;4955010;28;20909;-71
2022/12/21 05:30:56;;;;;;;46.83;31.93;;;;;;;39.89;37.77;100921.41;4954683;29;20439;-73
2022/12/21 05:33:23;;;;;;;50.97;30.20;;;;;;;39.48;38.25;100926.09;4955019;28;20523;-73
2022/12/21 05:35:50;;;;;;;42.87;29.63;;;;;;;39.54;38.56;100929.47;4963673;28;20502;-73
2022/12/21 05:38:16;;;;;;;41.53;31.00;;;;;;;39.76;38.19;100929.38;4976402;28;20464;-70
2022/12/21 05:40:47;;;;;;;51.83;33.27;;;;;;;39.38;38.49;100931.03;4977302;28;20545;-70
2022/12/21 05:43:13;;;;;;;41.93;30.20;;;;;;;39.46;38.86;100933.75;4977458;28;20414;-71
2022/12/21 05:45:39;;;;;;;48.80;36.07;;;;;;;39.48;38.48;100938.88;4995065;28;20487;-71
2022/12/21 05:48:05;;;;;;;56.50;36.27;;;;;;;39.33;38.75;100945.53;4977290;28;20513;-71
2022/12/21 05:50:31;;;;;;;61.40;38.30;;;;;;;39.07;39.25;100937.25;4977118;28;21018;-71
2022/12/21 05:52:57;;;;;;;43.87;31.27;;;;;;;39.42;38.31;100948.28;4977091;28;20934;-71
2022/12/21 05:55:22;;;;;;;46.13;33.10;;;;;;;39.78;37.71;100952.69;4975745;28;20650;-70
2022/12/21 05:57:48;;;;;;;48.47;32.13;;;;;;;39.66;37.67;100962.28;4977187;28;20801;-70
2022/12/21 06:00:15;;;;;;;64.00;32.80;;;;;;;39.38;38.26;100961.66;4976819;28;20836;-70
2022/12/21 06:02:41;;;;;;;46.90;31.57;;;;;;;39.31;38.13;100958.63;4976906;28;20980;-70
2022/12/21 06:05:07;;;;;;;52.70;36.90;;;;;;;39.40;38.19;100961.34;4976879;28;20486;-69
2022/12/21 06:07:34;;;;;;;56.97;37.80;;;;;;;39.58;38.06;100962.22;4976788;28;20413;-72
2022/12/21 06:10:00;;;;;;;53.47;36.50;;;;;;;39.56;38.37;100957.09;4975656;28;20996;-72
2022/12/21 06:12:28;;;;;;;45.57;33.17;;;;;;;39.79;37.99;100965.19;4976586;28;20445;-72
2022/12/21 06:14:55;;;;;;;50.57;36.77;;;;;;;39.83;37.86;100963.41;4976727;28;20930;-72
2022/12/21 06:17:21;;;;;;;68.27;38.53;;;;;;;39.86;37.53;100969.03;4973409;28;20517;-72
2022/12/21 06:19:47;;;;;;;60.17;37.80;;;;;;;40.10;37.24;100971.31;4960618;28;20617;-72
2022/12/21 06:22:12;;;;;;;53.57;35.83;;;;;;;40.15;36.72;100971.16;4957274;28;20530;-70
2022/12/21 06:24:38;;;;;;;51.80;35.67;;;;;;;40.15;36.56;100971.16;4959624;28;20476;-72
2022/12/21 06:27:04;;;;;;;57.43;41.77;;;;;;;40.34;36.52;100962.69;4961171;28;20932;-69
2022/12/21 06:29:30;;;;;;;60.60;41.30;;;;;;;40.44;36.06;100973.22;4976778;28;20401;-72
2022/12/21 06:31:56;;;;;;;63.23;43.00;;;;;;;40.41;35.95;100970.38;4989401;28;20417;-68
2022/12/21 06:34:22;;;;;;;62.37;41.40;;;;;;;40.35;36.12;100968.94;4992621;28;20490;-71
2022/12/21 06:36:48;;;;;;;57.23;41.20;;;;;;;40.34;36.10;100978.19;4987540;28;20468;-71
2022/12/21 06:39:14;;;;;;;66.80;41.40;;;;;;;40.29;36.14;100981.88;4976836;28;20461;-70
2022/12/21 06:41:40;;;;;;;59.70;40.23;;;;;;;40.35;36.01;100985.22;4990892;28;20417;-72
2022/12/21 06:44:07;;;;;;;77.20;43.60;;;;;;;40.36;35.98;100992.25;4979738;28;20449;-71
2022/12/21 06:46:33;;;;;;;55.97;39.77;;;;;;;40.19;36.21;100993.84;4995554;28;20922;-70
2022/12/21 06:48:59;;;;;;;51.70;35.20;;;;;;;40.40;36.48;101006.81;4975844;28;20456;-71
2022/12/21 06:51:25;;;;;;;66.33;41.03;;;;;;;40.29;36.08;101007.13;4968176;28;20943;-71
2022/12/21 06:53:53;;;;;;;57.23;35.83;;;;;;;40.23;35.99;101004.88;4992166;28;20441;-71
2022/12/21 06:56:21;;;;;;;62.37;38.53;;;;;;;40.29;36.20;101009.06;5003186;28;20425;-70
2022/12/21 06:58:49;;;;;;;49.67;37.90;;;;;;;40.30;36.08;101005.22;4976635;28;20485;-70
2022/12/21 07:01:18;;;;;;;63.60;43.43;;;;;;;40.19;36.52;101004.72;4971592;28;20441;-72
2022/12/21 07:03:45;;;;;;;51.53;38.23;;;;;;;40.39;36.05;101008.75;4989787;28;20433;-73
2022/12/21 07:06:13;;;;;;;53.17;39.70;;;;;;;40.07;36.22;101023.56;4991919;28;20416;-71
2022/12/21 07:08:40;;;;;;;54.97;40.20;;;;;;;39.98;36.39;101026.25;4978758;28;20441;-69
2022/12/21 07:11:09;;;;;;;70.87;42.63;;;;;;;40.02;36.44;101027.22;4975774;28;20785;-74
2022/12/21 07:13:36;;;;;;;66.60;41.33;;;;;;;40.02;36.95;101031.84;4979896;28;20417;-70
2022/12/21 07:16:03;;;;;;;56.70;39.97;;;;;;;39.95;36.45;101036.94;4991086;28;20428;-70
2022/12/21 07:18:29;;;;;;;73.37;46.77;;;;;;;39.93;36.61;101039.19;4973556;28;20438;-71
2022/12/21 07:21:02;;;;;;;64.23;42.43;;;;;;;39.84;37.08;101046.47;4990385;28;20519;-72
2022/12/21 07:23:29;;;;;;;60.37;42.70;;;;;;;39.97;36.94;101045.59;4978485;28;20413;-70
2022/12/21 07:25:56;;;;;;;71.03;44.63;;;;;;;39.42;37.73;101051.44;4979646;28;20445;-72
2022/12/21 07:28:23;;;;;;;74.07;49.20;;;;;;;39.63;37.42;101055.22;5001744;28;20428;-70
2022/12/21 07:30:49;;;;;;;63.73;42.57;;;;;;;39.60;37.59;101050.41;5004404;28;20409;-71
2022/12/21 07:33:16;;;;;;;59.77;43.80;;;;;;;39.60;37.26;101061.28;5001639;28;20457;-73
2022/12/21 07:35:42;;;;;;;57.93;39.97;;;;;;;39.87;37.25;101062.16;4973850;28;20425;-70
2022/12/21 07:38:08;;;;;;;67.30;40.70;;;;;;;40.09;36.92;101061.31;4981818;28;20527;-70
2022/12/21 07:40:34;;;;;;;63.70;44.60;;;;;;;39.85;36.93;101059.78;4990831;28;20989;-72
2022/12/21 07:43:00;;;;;;;66.80;43.20;;;;;;;40.12;36.81;101052.50;4990852;28;20483;-73
2022/12/21 07:45:26;;;;;;;71.53;46.60;;;;;;;40.14;36.44;101061.94;4991984;28;20784;-70
2022/12/21 07:47:56;;;;;;;60.40;42.30;;;;;;;39.99;37.17;101070.50;4984962;28;20933;-69
2022/12/21 07:50:22;;;;;;;69.73;48.47;;;;;;;39.70;37.56;101066.41;4959708;28;20413;-69
2022/12/21 07:52:48;;;;;;;66.00;44.90;;;;;;;39.66;37.93;101080.94;4977316;28;20417;-68
2022/12/21 07:55:14;;;;;;;62.87;46.50;;;;;;;39.75;37.53;101071.72;4997052;28;20413;-69
2022/12/21 07:57:40;;;;;;;71.03;44.77;;;;;;;39.80;37.53;101068.06;4979349;28;20475;-69
2022/12/21 08:00:09;;;;;;;56.47;39.20;;;;;;;39.83;37.07;101075.56;5011733;28;20541;-69
2022/12/21 08:02:35;;;;;;;70.50;38.70;;;;;;;39.74;37.37;101082.91;4979267;28;20408;-69
2022/12/21 08:05:01;;;;;;;64.10;39.60;;;;;;;40.16;36.66;101077.94;4996191;28;20441;-69
2022/12/21 08:07:26;;;;;;;45.83;33.73;;;;;;;40.01;37.30;101079.94;4979056;28;20468;-69
2022/12/21 08:09:52;;;;;;;56.77;32.60;;;;;;;40.14;37.04;101078.22;4979168;28;20413;-71
2022/12/21 08:12:19;;;;;;;53.87;31.57;;;;;;;40.12;37.40;101079.69;5011388;28;20572;-69
2022/12/21 08:14:45;;;;;;;54.23;32.83;;;;;;;40.39;36.31;101082.16;4978978;28;20421;-75
2022/12/21 08:17:10;;;;;;;56.70;39.00;;;;;;;40.46;36.54;101078.94;4978957;28;20941;-72
2022/12/21 08:19:36;;;;;;;52.03;34.43;;;;;;;40.59;36.17;101072.59;4994953;28;20463;-70
2022/12/21 08:22:02;;;;;;;55.63;37.70;;;;;;;40.51;36.40;101084.25;4984048;28;20535;-71
2022/12/21 08:24:28;;;;;;;45.80;32.33;;;;;;;40.18;36.88;101076.50;4984263;28;20826;-70
2022/12/21 08:26:55;;;;;;;58.30;30.03;;;;;;;40.75;35.93;101083.75;4994884;28;20922;-70
2022/12/21 08:29:20;;;;;;;43.20;32.80;;;;;;;40.71;36.39;101078.19;4995098;28;20421;-70
2022/12/21 08:31:46;;;;;;;44.17;31.83;;;;;;;40.48;36.45;101082.16;4975938;28;20448;-71
2022/12/21 08:34:12;;;;;;;45.50;32.27;;;;;;;40.08;36.96;101082.22;4984978;28;20428;-71
2022/12/21 08:36:40;;;;;;;47.77;32.97;;;;;;;40.58;36.58;101078.31;4978339;28;20473;-71
2022/12/21 08:39:06;;;;;;;57.73;33.87;;;;;;;40.91;36.06;101087.63;4996547;28;20460;-71
2022/12/21 08:41:32;;;;;;;48.73;33.67;;;;;;;40.35;37.06;101089.31;4994494;28;20489;-70
2022/12/21 08:43:57;;;;;;;42.17;30.93;;;;;;;40.13;36.44;101082.06;4978395;28;20504;-71
2022/12/21 08:46:23;;;;;;;36.27;28.07;;;;;;;40.66;36.09;101085.69;4994575;28;20420;-71
2022/12/21 08:48:49;;;;;;;50.43;31.77;;;;;;;40.33;36.43;101090.75;4995738;28;20421;-71
2022/12/21 08:51:15;;;;;;;63.73;36.03;;;;;;;40.68;36.46;101092.41;4981159;28;20436;-71
2022/12/21 08:53:41;;;;;;;43.83;31.60;;;;;;;40.14;37.47;101089.09;4980564;28;20479;-71
2022/12/21 08:56:07;;;;;;;39.23;29.20;;;;;;;39.95;37.58;101081.19;4994379;28;20417;-72
2022/12/21 08:58:34;;;;;;;65.73;34.30;;;;;;;40.46;36.33;101070.78;4977712;28;20464;-72
2022/12/21 09:01:00;;;;;;;34.50;25.37;;;;;;;39.93;37.22;101077.22;4977937;28;20880;-71
2022/12/21 09:03:26;;;;;;;32.90;23.20;;;;;;;40.37;36.32;101080.84;4993736;28;20425;-71
2022/12/21 09:05:54;;;;;;;37.50;28.67;;;;;;;40.73;35.82;101086.81;4977642;28;20544;-71
2022/12/21 09:08:20;;;;;;;38.77;29.50;;;;;;;40.01;37.38;101076.41;4983695;28;20436;-71
2022/12/21 09:10:46;;;;;;;48.63;30.30;;;;;;;39.38;38.51;101077.56;4977902;28;20413;-73
2022/12/21 09:13:12;;;;;;;44.07;28.23;;;;;;;40.55;36.31;101079.78;4993135;28;20918;-74
2022/12/21 09:15:42;;;;;;;46.13;26.40;;;;;;;41.02;35.80;101079.94;4977170;28;20429;-73
2022/12/21 09:18:10;;;;;;;33.47;26.10;;;;;;;41.02;35.06;101075.28;4984730;28;20421;-74
2022/12/21 09:20:37;;;;;;;39.53;26.00;;;;;;;41.03;34.97;101076.09;4984093;28;20837;-74
2022/12/21 09:23:03;;;;;;;52.80;31.70;;;;;;;40.78;35.66;101075.78;4961583;28;20421;-73
2022/12/21 09:25:29;;;;;;;41.13;29.43;;;;;;;41.01;35.30;101070.97;4976783;28;20442;-73
2022/12/21 09:27:58;;;;;;;41.67;29.50;;;;;;;41.08;35.67;101078.66;4962539;28;20454;-73
2022/12/21 09:30:24;;;;;;;34.40;25.33;;;;;;;41.48;35.43;101073.75;4977431;28;20417;-73
2022/12/21 09:32:50;;;;;;;39.93;25.67;;;;;;;41.59;34.98;101069.56;4994039;28;20447;-73
2022/12/21 09:35:16;;;;;;;28.83;22.80;;;;;;;41.68;34.60;101064.06;4978360;28;20432;-72
2022/12/21 09:37:42;;;;;;;38.63;23.10;;;;;;;41.85;34.38;101066.72;4980392;28;20519;-74
2022/12/21 09:40:12;;;;;;;38.63;23.37;;;;;;;41.61;34.70;101052.88;4995163;28;20487;-74
2022/12/21 09:43:00;;;;;;;30.53;20.57;;;;;;;41.91;34.54;101066.53;4993765;28;20468;-74
2022/12/21 09:45:39;;;;;;;33.03;22.33;;;;;;;41.76;34.36;101067.91;4993629;28;20438;-73
2022/12/21 09:48:15;;;;;;;32.70;22.60;;;;;;;41.87;34.59;101060.97;4993969;28;20451;-72
2022/12/21 09:50:57;;;;;;;27.70;22.37;;;;;;;41.67;34.64;101067.91;4961977;28;20429;-73
2022/12/21 09:53:30;;;;;;;32.47;25.13;;;;;;;41.70;34.43;101056.38;4977252;28;20440;-73
2022/12/21 09:55:59;;;;;;;32.43;22.93;;;;;;;41.67;34.39;101054.28;4977205;28;20425;-72
2022/12/21 09:58:40;;;;;;;33.13;23.33;;;;;;;42.03;33.87;101059.25;4976938;28;20461;-70
2022/12/21 10:01:28;;;;;;;31.33;23.60;;;;;;;41.98;34.21;101051.25;4977014;28;20467;-71
2022/12/21 10:04:06;;;;;;;26.20;21.13;;;;;;;41.93;34.03;101053.38;4993992;28;20449;-72
2022/12/21 10:06:35;;;;;;;29.83;22.97;;;;;;;41.99;33.79;101047.44;4976981;28;20414;-71
2022/12/21 10:09:14;;;;;;;29.30;20.23;;;;;;;42.04;34.09;101051.88;4976906;28;20429;-71
2022/12/21 10:12:06;;;;;;;33.57;20.93;;;;;;;41.86;34.05;101049.25;4977077;28;20428;-71
2022/12/21 10:14:47;;;;;;;30.00;22.80;;;;;;;42.08;33.78;101044.63;4976591;28;20436;-71
2022/12/21 10:17:31;;;;;;;22.77;20.90;;;;;;;42.16;33.50;101035.63;4993575;28;20493;-72
2022/12/21 10:20:19;;;;;;;31.30;20.70;;;;;;;41.75;33.90;101033.63;4994431;28;20592;-73
2022/12/21 10:22:51;;;;;;;26.73;20.07;;;;;;;41.89;34.12;101033.38;4981328;28;20472;-71
2022/12/21 10:25:28;;;;;;;26.30;20.60;;;;;;;41.88;33.97;101034.53;4976647;28;20473;-71
2022/12/21 10:28:03;;;;;;;26.37;19.47;;;;;;;41.92;33.86;101035.44;4992679;28;20510;-71
2022/12/21 10:30:32;;;;;;;31.70;21.77;;;;;;;41.51;34.67;101026.03;4976598;28;20441;-69
2022/12/21 10:32:59;;;;;;;27.93;21.07;;;;;;;41.70;34.53;101028.34;4976425;28;20917;-70
2022/12/21 10:35:36;;;;;;;31.83;19.90;;;;;;;42.00;34.43;101031.88;4976374;28;20965;-71
2022/12/21 10:38:14;;;;;;;31.13;20.30;;;;;;;41.64;34.60;101029.66;4993724;28;20472;-76
2022/12/21 10:40:42;;;;;;;32.20;20.53;;;;;;;41.32;34.82;101029.13;4992888;28;20493;-71
2022/12/21 10:43:10;;;;;;;25.87;18.93;;;;;;;41.65;34.52;101029.31;4976317;28;20948;-71
2022/12/21 10:45:36;;;;;;;27.43;20.40;;;;;;;41.67;34.45;101016.16;4976243;28;20437;-71
2022/12/21 10:48:02;;;;;;;28.43;19.60;;;;;;;41.89;34.36;101015.09;4974797;28;20449;-71
2022/12/21 10:50:34;;;;;;;25.60;17.67;;;;;;;41.57;34.15;101013.81;4964702;28;20430;-71
2022/12/21 10:53:25;;;;;;;23.13;17.47;;;;;;;41.64;34.63;101016.03;4976630;28;20436;-72
2022/12/21 10:55:58;;;;;;;30.20;19.77;;;;;;;41.51;34.68;101013.22;4991940;28;20437;-71
2022/12/21 10:58:29;;;;;;;33.03;20.90;;;;;;;41.43;34.99;101010.50;4963824;28;20502;-71
2022/12/21 11:01:01;;;;;;;28.50;20.53;;;;;;;41.39;35.53;101001.41;4979596;28;20504;-70
2022/12/21 11:03:36;;;;;;;25.17;18.43;;;;;;;41.59;35.19;101003.38;4981857;28;20442;-71
2022/12/21 11:06:15;;;;;;;33.53;20.03;;;;;;;41.35;35.37;100990.38;4972550;28;20469;-71
2022/12/21 11:08:46;;;;;;;26.77;19.43;;;;;;;41.65;35.32;100998.56;4965701;28;20429;-71
2022/12/21 11:11:33;;;;;;;25.33;18.07;;;;;;;41.66;35.15;100983.81;4956597;28;20421;-71
2022/12/21 11:14:17;;;;;;;30.73;18.13;;;;;;;41.20;35.98;100985.44;4956806;28;20913;-72
2022/12/21 11:16:47;;;;;;;34.60;21.27;;;;;;;41.21;36.27;100982.41;4956442;28;20826;-71
2022/12/21 11:19:17;;;;;;;26.60;21.60;;;;;;;40.91;37.08;100980.72;4990882;28;20417;-71
2022/12/21 11:21:50;;;;;;;34.03;22.20;;;;;;;41.22;36.51;100978.53;4993417;28;20461;-71
2022/12/21 11:24:37;;;;;;;32.33;24.10;;;;;;;41.30;36.20;100976.91;4992075;28;20532;-72
2022/12/21 11:27:13;;;;;;;29.60;20.03;;;;;;;40.91;37.14;100975.28;4981823;28;20457;-71
2022/12/21 11:29:50;;;;;;;30.37;23.57;;;;;;;40.97;36.85;100966.63;4973946;28;20433;-71
2022/12/21 11:32:17;;;;;;;35.77;22.40;;;;;;;41.00;37.07;100959.72;4975681;28;20420;-71
2022/12/21 11:34:53;;;;;;;39.73;22.60;;;;;;;41.18;36.96;100957.75;4991881;28;20432;-71
2022/12/21 11:37:37;;;;;;;42.43;20.60;;;;;;;41.32;36.41;100961.06;4970644;28;20578;-71